createdAt,value
2023-03-17T00:00:22.179Z,96819.03
2023-03-17T00:02:49.907Z,96820.81
2023-03-17T00:05:17.675Z,96820.81
2023-03-17T00:07:45.408Z,96823.69
2023-03-17T00:10:20.444Z,96823.84
2023-03-17T00:12:47.052Z,96824.63
2023-03-17T00:17:56.502Z,96827.44
2023-03-17T00:20:25.495Z,96821.56
2023-03-17T00:22:52.406Z,96825.94
2023-03-17T00:26:30.161Z,96812.03
2023-03-17T00:28:56.989Z,96814.72
2023-03-17T00:31:41.335Z,96807.88
2023-03-17T00:34:11.593Z,96809.50
2023-03-17T00:36:38.163Z,96809.72
2023-03-17T00:41:39.374Z,96794.59
2023-03-17T00:44:05.893Z,96795.63
2023-03-17T00:49:19.383Z,96787.03
2023-03-17T00:51:46.268Z,96782.78
2023-03-17T00:54:14.215Z,96785.66
2023-03-17T00:56:41.785Z,96784.66
2023-03-17T01:06:12.726Z,96780.44
2023-03-17T01:08:40.664Z,96779.75
2023-03-17T01:11:07.491Z,96775.59
2023-03-17T01:15:58.326Z,96759.16
2023-03-17T01:18:24.936Z,96765.94
2023-03-17T01:20:51.602Z,96762.47
2023-03-17T01:23:18.273Z,96756.41
2023-03-17T01:25:45.545Z,96756.53
2023-03-17T01:28:13.683Z,96756.88
2023-03-17T01:30:40.654Z,96746.66
2023-03-17T01:33:08.631Z,96752.91
2023-03-17T01:35:36.878Z,96745.00
2023-03-17T01:38:03.975Z,96746.81
2023-03-17T01:40:35.101Z,96748.59
2023-03-17T01:43:08.379Z,96742.47
2023-03-17T01:45:53.505Z,96740.16
2023-03-17T01:48:20.235Z,96740.25
2023-03-17T01:50:48.404Z,96738.53
2023-03-17T01:53:15.524Z,96735.22
2023-03-17T01:55:43.697Z,96732.50
2023-03-17T01:58:10.506Z,96728.25
2023-03-17T02:00:37.055Z,96719.56
2023-03-17T02:03:04.381Z,96726.66
2023-03-17T02:05:31.631Z,96721.59
2023-03-17T02:07:58.791Z,96723.34
2023-03-17T02:10:26.398Z,96720.13
2023-03-17T02:12:55.554Z,96716.75
2023-03-17T02:15:22.310Z,96718.38
2023-03-17T02:17:49.652Z,96711.28
2023-03-17T02:20:16.172Z,96702.63
2023-03-17T02:22:44.020Z,96701.94
2023-03-17T02:25:10.627Z,96703.53
2023-03-17T02:27:39.593Z,96703.72
2023-03-17T02:30:08.055Z,96706.41
2023-03-17T02:32:48.573Z,96702.88
2023-03-17T02:35:15.598Z,96700.25
2023-03-17T02:37:43.745Z,96696.88
2023-03-17T02:40:11.462Z,96698.56
2023-03-17T02:42:39.402Z,96701.09
2023-03-17T02:45:07.188Z,96710.72
2023-03-17T02:47:33.721Z,96701.94
2023-03-17T02:50:00.242Z,96696.69
2023-03-17T02:55:08.387Z,96686.25
2023-03-17T02:57:34.940Z,96698.56
2023-03-17T03:00:01.565Z,96695.19
2023-03-17T03:02:28.102Z,96695.19
2023-03-17T03:04:54.709Z,96697.78
2023-03-17T03:07:21.236Z,96701.31
2023-03-17T03:09:47.814Z,96692.72
2023-03-17T03:12:14.382Z,96697.19
2023-03-17T03:14:41.089Z,96698.22
2023-03-17T03:17:07.653Z,96699.88
2023-03-17T03:19:34.166Z,96702.66
2023-03-17T03:22:00.868Z,96702.56
2023-03-17T03:24:28.043Z,96695.66
2023-03-17T03:26:54.565Z,96699.22
2023-03-17T03:29:21.169Z,96694.97
2023-03-17T03:31:48.809Z,96696.81
2023-03-17T03:34:15.467Z,96689.91
2023-03-17T03:36:42.258Z,96696.91
2023-03-17T03:39:09.798Z,96691.84
2023-03-17T03:41:36.540Z,96694.59
2023-03-17T03:44:03.062Z,96690.41
2023-03-17T03:46:29.681Z,96693.75
2023-03-17T03:48:56.295Z,96687.63
2023-03-17T03:51:22.829Z,96689.63
2023-03-17T03:54:03.281Z,96690.16
2023-03-17T03:56:29.864Z,96694.75
2023-03-17T03:58:57.242Z,96693.22
2023-03-17T04:01:24.672Z,96689.00
2023-03-17T04:03:51.398Z,96695.22
2023-03-17T04:06:17.983Z,96685.56
2023-03-17T04:08:44.556Z,96688.16
2023-03-17T04:11:11.350Z,96685.63
2023-03-17T04:13:38.877Z,96682.09
2023-03-17T04:16:05.607Z,96683.16
2023-03-17T04:19:23.781Z,96679.56
2023-03-17T04:21:52.838Z,96682.25
2023-03-17T04:24:20.286Z,96679.72
2023-03-17T04:26:46.886Z,96683.34
2023-03-17T04:30:34.770Z,96682.72
2023-03-17T04:33:01.435Z,96687.25
2023-03-17T04:35:28.068Z,96684.72
2023-03-17T04:37:54.640Z,96676.81
2023-03-17T04:40:21.256Z,96675.28
2023-03-17T04:45:26.635Z,96678.97
2023-03-17T04:47:53.130Z,96686.19
2023-03-17T04:50:19.728Z,96672.97
2023-03-17T04:52:46.397Z,96678.28
2023-03-17T04:55:12.960Z,96680.19
2023-03-17T04:57:39.540Z,96684.66
2023-03-17T05:00:07.287Z,96675.88
2023-03-17T05:02:33.917Z,96676.66
2023-03-17T05:05:00.499Z,96678.44
2023-03-17T05:07:27.032Z,96679.28
2023-03-17T05:09:53.571Z,96680.06
2023-03-17T05:12:20.154Z,96681.63
2023-03-17T05:14:47.238Z,96674.69
2023-03-17T05:17:14.038Z,96690.94
2023-03-17T05:19:40.833Z,96684.56
2023-03-17T05:22:07.403Z,96689.78
2023-03-17T05:24:33.924Z,96694.09
2023-03-17T05:27:00.476Z,96699.22
2023-03-17T05:29:27.040Z,96702.50
2023-03-17T05:31:54.005Z,96702.13
2023-03-17T05:34:20.526Z,96711.03
2023-03-17T05:36:47.054Z,96710.28
2023-03-17T05:41:52.793Z,96714.88
2023-03-17T05:44:20.476Z,96717.69
2023-03-17T05:46:47.642Z,96719.78
2023-03-17T05:49:14.278Z,96723.25
2023-03-17T05:51:41.954Z,96725.78
2023-03-17T05:54:08.840Z,96728.22
2023-03-17T05:56:35.449Z,96725.78
2023-03-17T05:59:02.380Z,96730.00
2023-03-17T06:01:29.637Z,96723.63
2023-03-17T06:03:56.180Z,96731.22
2023-03-17T06:06:23.453Z,96726.44
2023-03-17T06:08:50.044Z,96729.38
2023-03-17T06:11:18.236Z,96728.69
2023-03-17T06:13:44.700Z,96727.78
2023-03-17T06:16:11.362Z,96725.34
2023-03-17T06:18:37.911Z,96712.28
2023-03-17T06:21:05.280Z,96708.66
2023-03-17T06:23:31.844Z,96711.94
2023-03-17T06:25:58.345Z,96708.66
2023-03-17T06:28:24.869Z,96707.13
2023-03-17T06:30:51.460Z,96702.59
2023-03-17T06:33:19.245Z,96701.34
2023-03-17T06:35:46.082Z,96691.38
2023-03-17T06:38:13.597Z,96693.75
2023-03-17T06:40:40.395Z,96693.78
2023-03-17T06:43:07.867Z,96694.13
2023-03-17T06:45:34.823Z,96682.16
2023-03-17T06:48:02.456Z,96676.59
2023-03-17T06:50:29.129Z,96676.03
2023-03-17T06:52:56.055Z,96678.66
2023-03-17T06:55:22.629Z,96686.31
2023-03-17T06:57:51.060Z,96679.94
2023-03-17T07:00:18.214Z,96682.47
2023-03-17T07:02:44.717Z,96685.09
2023-03-17T07:05:12.740Z,96671.09
2023-03-17T07:07:39.617Z,96677.50
2023-03-17T07:10:07.069Z,96672.97
2023-03-17T07:12:34.356Z,96664.31
2023-03-17T07:15:01.432Z,96661.69
2023-03-17T07:17:28.202Z,96675.25
2023-03-17T07:19:54.743Z,96682.44
2023-03-17T07:22:21.305Z,96669.56
2023-03-17T07:24:49.288Z,96672.22
2023-03-17T07:27:16.552Z,96682.84
2023-03-17T07:29:43.170Z,96672.19
2023-03-17T07:32:10.418Z,96676.53
2023-03-17T07:34:37.532Z,96675.84
2023-03-17T07:37:18.149Z,96681.47
2023-03-17T07:39:44.840Z,96687.03
2023-03-17T07:42:14.871Z,96677.84
2023-03-17T07:44:41.775Z,96682.03
2023-03-17T07:49:47.738Z,96674.19
2023-03-17T07:52:14.793Z,96668.59
2023-03-17T07:54:43.186Z,96669.69
2023-03-17T07:57:09.853Z,96667.06
2023-03-17T07:59:36.530Z,96662.34
2023-03-17T08:03:48.313Z,96661.59
2023-03-17T08:06:14.905Z,96661.84
2023-03-17T08:08:41.849Z,96660.19
2023-03-17T08:11:08.368Z,96662.84
2023-03-17T08:13:35.098Z,96653.13
2023-03-17T08:16:02.001Z,96659.69
2023-03-17T08:18:28.631Z,96654.31
2023-03-17T08:20:55.452Z,96647.63
2023-03-17T08:23:22.568Z,96647.84
2023-03-17T08:28:29.403Z,96642.56
2023-03-17T08:31:05.663Z,96628.75
2023-03-17T08:33:32.452Z,96629.84
2023-03-17T08:35:59.166Z,96618.09
2023-03-17T08:38:26.016Z,96621.06
2023-03-17T08:40:52.566Z,96614.81
2023-03-17T08:43:19.174Z,96617.50
2023-03-17T08:45:45.780Z,96606.66
2023-03-17T08:48:12.391Z,96615.63
2023-03-17T08:50:39.047Z,96615.81
2023-03-17T08:53:05.565Z,96618.09
2023-03-17T08:55:32.056Z,96612.59
2023-03-17T08:57:58.612Z,96612.69
2023-03-17T09:00:25.086Z,96613.41
2023-03-17T09:02:51.718Z,96613.28
2023-03-17T09:05:18.486Z,96605.19
2023-03-17T09:07:45.212Z,96611.28
2023-03-17T09:10:13.746Z,96615.38
2023-03-17T09:12:40.630Z,96609.41
2023-03-17T09:15:07.845Z,96611.78
2023-03-17T09:17:34.825Z,96617.78
2023-03-17T09:22:40.956Z,96602.84
2023-03-17T09:25:07.678Z,96594.88
2023-03-17T09:27:34.186Z,96593.19
2023-03-17T09:30:00.712Z,96598.06
2023-03-17T09:32:27.457Z,96586.84
2023-03-17T09:34:54.014Z,96586.59
2023-03-17T09:37:20.530Z,96584.47
2023-03-17T09:39:47.238Z,96584.00
2023-03-17T09:42:33.467Z,96582.63
2023-03-17T09:45:00.003Z,96581.09
2023-03-17T09:47:42.938Z,96583.13
2023-03-17T09:50:13.098Z,96568.50
2023-03-17T09:52:39.757Z,96570.84
2023-03-17T09:55:08.656Z,96570.81
2023-03-17T09:57:36.423Z,96563.50
2023-03-17T10:00:07.667Z,96572.47
2023-03-17T10:02:37.514Z,96570.50
2023-03-17T10:05:22.036Z,96561.41
2023-03-17T10:07:57.733Z,96557.63
2023-03-17T10:10:39.526Z,96549.91
2023-03-17T10:13:14.839Z,96540.59
2023-03-17T10:15:47.696Z,96542.44
2023-03-17T10:18:15.425Z,96556.66
2023-03-17T10:20:47.721Z,96541.44
2023-03-17T10:23:17.254Z,96542.44
2023-03-17T10:25:43.861Z,96552.56
2023-03-17T10:28:29.938Z,96538.13
2023-03-17T10:31:16.743Z,96554.91
2023-03-17T10:34:50.863Z,96549.13
2023-03-17T10:37:19.469Z,96546.72
2023-03-17T10:39:51.239Z,96530.00
2023-03-17T10:42:25.728Z,96534.81
2023-03-17T10:44:57.002Z,96533.13
2023-03-17T10:47:31.837Z,96533.19
2023-03-17T10:50:00.287Z,96525.25
2023-03-17T10:52:28.050Z,96518.25
2023-03-17T10:54:54.749Z,96530.13
2023-03-17T10:57:21.564Z,96530.13
2023-03-17T10:59:53.404Z,96528.06
2023-03-17T11:02:36.876Z,96530.41
2023-03-17T11:05:04.969Z,96520.81
2023-03-17T11:07:38.218Z,96517.44
2023-03-17T11:10:14.822Z,96514.91
2023-03-17T11:13:43.919Z,96508.00
2023-03-17T11:16:18.672Z,96511.19
2023-03-17T11:18:48.438Z,96500.44
2023-03-17T11:22:05.530Z,96502.47
2023-03-17T11:24:33.846Z,96495.28
2023-03-17T11:27:23.670Z,96494.47
2023-03-17T11:30:10.577Z,96497.75
2023-03-17T11:32:37.792Z,96482.63
2023-03-17T11:35:19.616Z,96482.63
2023-03-17T11:37:46.466Z,96474.78
2023-03-17T11:40:18.666Z,96479.25
2023-03-17T11:43:04.156Z,96476.09
2023-03-17T11:45:38.257Z,96470.25
2023-03-17T11:48:10.745Z,96466.66
2023-03-17T11:50:43.519Z,96471.63
2023-03-17T11:53:16.749Z,96460.16
2023-03-17T11:55:46.337Z,96452.50
2023-03-17T11:58:33.748Z,96448.19
2023-03-17T12:01:01.006Z,96443.75
2023-03-17T12:03:34.372Z,96448.06
2023-03-17T12:06:05.528Z,96440.41
2023-03-17T12:11:18.227Z,96420.47
2023-03-17T12:13:47.778Z,96433.75
2023-03-17T12:16:17.566Z,96428.16
2023-03-17T12:18:53.461Z,96419.75
2023-03-17T12:21:25.711Z,96423.06
2023-03-17T12:23:55.269Z,96408.53
2023-03-17T12:26:28.431Z,96414.31
2023-03-17T12:29:14.158Z,96406.69
2023-03-17T12:32:13.209Z,96395.88
2023-03-17T12:34:39.809Z,96405.44
2023-03-17T12:37:07.767Z,96414.78
2023-03-17T12:39:35.004Z,96399.47
2023-03-17T12:42:18.574Z,96404.63
2023-03-17T12:44:54.128Z,96390.97
2023-03-17T12:47:23.378Z,96400.97
2023-03-17T12:49:58.751Z,96395.91
2023-03-17T12:52:44.290Z,96389.94
2023-03-17T12:55:15.781Z,96387.47
2023-03-17T12:57:46.609Z,96387.59
2023-03-17T13:00:24.580Z,96388.88
2023-03-17T13:03:06.207Z,96388.88
2023-03-17T13:05:33.599Z,96381.78
2023-03-17T13:08:02.436Z,96374.28
2023-03-17T13:10:37.823Z,96373.34
2023-03-17T13:13:06.937Z,96371.22
2023-03-17T13:15:38.224Z,96371.75
2023-03-17T13:20:18.312Z,96365.34
2023-03-17T13:23:03.604Z,96367.22
2023-03-17T13:25:33.541Z,96367.56
2023-03-17T13:28:12.820Z,96363.03
2023-03-17T13:30:39.461Z,96361.88
2023-03-17T13:33:12.111Z,96360.16
2023-03-17T13:35:47.854Z,96361.84
2023-03-17T13:38:33.192Z,96353.00
2023-03-17T13:41:08.994Z,96344.00
2023-03-17T13:43:54.271Z,96354.31
2023-03-17T13:46:32.606Z,96356.00
2023-03-17T13:49:02.269Z,96348.50
2023-03-17T13:51:33.742Z,96344.00
2023-03-17T13:54:09.292Z,96339.81
2023-03-17T13:56:42.003Z,96345.81
2023-03-17T13:59:15.625Z,96334.84
2023-03-17T14:01:48.186Z,96335.88
2023-03-17T14:04:22.995Z,96323.44
2023-03-17T14:08:27.599Z,96320.94
2023-03-17T14:11:00.753Z,96315.41
2023-03-17T14:13:48.712Z,96323.34
2023-03-17T14:16:21.499Z,96316.56
2023-03-17T14:18:50.494Z,96314.88
2023-03-17T14:21:24.476Z,96305.44
2023-03-17T14:23:58.094Z,96308.25
2023-03-17T14:26:26.616Z,96300.25
2023-03-17T14:28:53.559Z,96304.91
2023-03-17T14:31:24.678Z,96295.59
2023-03-17T14:33:53.074Z,96292.66
2023-03-17T14:36:20.053Z,96287.19
2023-03-17T14:38:48.159Z,96284.69
2023-03-17T14:41:14.666Z,96287.19
2023-03-17T14:43:42.715Z,96280.88
2023-03-17T14:46:24.406Z,96284.53
2023-03-17T14:48:52.558Z,96282.22
2023-03-17T14:51:31.428Z,96277.25
2023-03-17T14:54:00.173Z,96269.28
2023-03-17T14:56:31.489Z,96278.75
2023-03-17T14:59:04.954Z,96265.91
2023-03-17T15:01:39.790Z,96262.59
2023-03-17T15:04:16.265Z,96257.75
2023-03-17T15:06:48.646Z,96259.94
2023-03-17T15:10:51.378Z,96256.91
2023-03-17T15:13:17.908Z,96252.59
2023-03-17T15:15:44.787Z,96253.91
2023-03-17T15:18:13.385Z,96253.56
2023-03-17T15:20:42.390Z,96259.75
2023-03-17T15:23:22.278Z,96251.78
2023-03-17T15:25:51.427Z,96251.88
2023-03-17T15:28:19.118Z,96254.22
2023-03-17T15:30:50.474Z,96251.38
2023-03-17T15:33:21.989Z,96242.91
2023-03-17T15:35:49.434Z,96245.91
2023-03-17T15:38:16.768Z,96242.38
2023-03-17T15:40:43.328Z,96240.00
2023-03-17T15:43:16.771Z,96232.09
2023-03-17T15:45:44.852Z,96242.88
2023-03-17T15:48:20.519Z,96236.47
2023-03-17T15:50:48.241Z,96238.78
2023-03-17T15:53:14.756Z,96245.88
2023-03-17T15:55:41.334Z,96240.72
2023-03-17T15:58:07.882Z,96230.22
2023-03-17T16:00:34.832Z,96246.13
2023-03-17T16:03:06.560Z,96242.91
2023-03-17T16:05:34.543Z,96240.03
2023-03-17T16:08:01.583Z,96235.84
2023-03-17T16:10:29.688Z,96234.09
2023-03-17T16:12:56.522Z,96243.00
2023-03-17T16:15:27.941Z,96236.50
2023-03-17T16:17:55.777Z,96240.09
2023-03-17T16:20:24.291Z,96243.50
2023-03-17T16:22:51.972Z,96246.78
2023-03-17T16:25:21.561Z,96240.94
2023-03-17T16:27:48.694Z,96238.97
2023-03-17T16:30:16.651Z,96243.53
2023-03-17T16:32:43.272Z,96239.69
2023-03-17T16:35:30.248Z,96246.41
2023-03-17T16:37:56.969Z,96242.69
2023-03-17T16:40:28.606Z,96249.59
2023-03-17T16:42:55.421Z,96252.91
2023-03-17T16:45:27.580Z,96246.88
2023-03-17T16:47:54.785Z,96246.81
2023-03-17T16:50:22.736Z,96251.34
2023-03-17T16:52:49.270Z,96247.91
2023-03-17T16:55:16.928Z,96251.28
2023-03-17T16:57:45.535Z,96253.56
2023-03-17T17:00:17.277Z,96253.44
2023-03-17T17:02:45.171Z,96257.69
2023-03-17T17:05:16.263Z,96263.16
2023-03-17T17:07:42.768Z,96257.06
2023-03-17T17:10:11.099Z,96267.22
2023-03-17T17:12:37.677Z,96262.63
2023-03-17T17:15:26.424Z,96268.25
2023-03-17T17:18:13.130Z,96267.13
2023-03-17T17:20:40.509Z,96275.34
2023-03-17T17:24:11.291Z,96268.25
2023-03-17T17:26:37.971Z,96269.91
2023-03-17T17:29:04.529Z,96268.78
2023-03-17T17:31:31.162Z,96268.50
2023-03-17T17:33:57.698Z,96265.56
2023-03-17T17:36:42.780Z,96270.03
2023-03-17T17:39:10.641Z,96272.38
2023-03-17T17:41:37.180Z,96273.03
2023-03-17T17:44:03.860Z,96278.84
2023-03-17T17:46:30.425Z,96276.06
2023-03-17T17:48:57.424Z,96280.34
2023-03-17T17:51:24.090Z,96277.53
2023-03-17T17:53:51.758Z,96283.34
2023-03-17T17:56:18.291Z,96287.34
2023-03-17T17:58:45.108Z,96281.19
2023-03-17T18:01:14.494Z,96291.72
2023-03-17T18:03:42.921Z,96299.59
2023-03-17T18:06:09.619Z,96297.91
2023-03-17T18:08:36.163Z,96293.59
2023-03-17T18:11:02.719Z,96293.25
2023-03-17T18:13:29.324Z,96295.34
2023-03-17T18:15:55.891Z,96309.03
2023-03-17T18:18:22.426Z,96301.66
2023-03-17T18:20:49.172Z,96296.88
2023-03-17T18:23:29.695Z,96302.66
2023-03-17T18:26:00.476Z,96300.69
2023-03-17T18:28:27.036Z,96302.03
2023-03-17T18:30:54.096Z,96304.22
2023-03-17T18:33:21.067Z,96307.81
2023-03-17T18:35:48.860Z,96306.66
2023-03-17T18:38:15.487Z,96295.50
2023-03-17T18:40:42.414Z,96292.41
2023-03-17T18:43:08.975Z,96296.41
2023-03-17T18:45:35.727Z,96290.06
2023-03-17T18:48:02.374Z,96296.44
2023-03-17T18:50:28.913Z,96293.34
2023-03-17T18:52:56.081Z,96290.56
2023-03-17T18:55:22.788Z,96293.47
2023-03-17T18:57:49.357Z,96290.50
2023-03-17T19:02:55.119Z,96286.31
2023-03-17T19:05:21.727Z,96286.44
2023-03-17T19:07:48.279Z,96280.84
2023-03-17T19:10:14.920Z,96287.69
2023-03-17T19:12:42.544Z,96277.16
2023-03-17T19:15:10.726Z,96280.25
2023-03-17T19:17:37.280Z,96273.56
2023-03-17T19:20:04.139Z,96277.66
2023-03-17T19:22:30.690Z,96276.72
2023-03-17T19:24:57.209Z,96278.63
2023-03-17T19:27:24.055Z,96280.88
2023-03-17T19:29:50.598Z,96271.44
2023-03-17T19:32:17.318Z,96277.69
2023-03-17T19:34:43.904Z,96278.75
2023-03-17T19:37:10.526Z,96272.75
2023-03-17T19:39:37.825Z,96280.31
2023-03-17T19:42:04.436Z,96279.59
2023-03-17T19:44:30.985Z,96278.88
2023-03-17T19:46:57.539Z,96277.19
2023-03-17T19:49:24.110Z,96277.44
2023-03-17T19:51:50.620Z,96274.09
2023-03-17T19:54:18.802Z,96270.75
2023-03-17T19:56:45.813Z,96262.38
2023-03-17T19:59:12.470Z,96265.94
2023-03-17T20:01:39.130Z,96263.69
2023-03-17T20:04:07.142Z,96263.94
2023-03-17T20:06:34.770Z,96261.41
2023-03-17T20:09:03.995Z,96266.91
2023-03-17T20:11:33.974Z,96266.19
2023-03-17T20:14:01.294Z,96268.22
2023-03-17T20:16:28.094Z,96256.00
2023-03-17T20:18:54.646Z,96256.63
2023-03-17T20:21:21.245Z,96259.84
2023-03-17T20:23:47.811Z,96268.09
2023-03-17T20:28:51.727Z,96250.38
2023-03-17T20:31:18.707Z,96253.75
2023-03-17T20:35:28.233Z,96255.78
2023-03-17T20:37:57.214Z,96250.50
2023-03-17T20:40:24.232Z,96251.56
2023-03-17T20:42:50.869Z,96260.41
2023-03-17T20:45:17.816Z,96250.13
2023-03-17T20:47:44.520Z,96245.13
2023-03-17T20:50:13.150Z,96246.78
2023-03-17T20:52:41.099Z,96242.59
2023-03-17T20:55:09.400Z,96248.09
2023-03-17T20:57:36.297Z,96245.56
2023-03-17T21:00:03.504Z,96229.19
2023-03-17T21:02:30.124Z,96230.75
2023-03-17T21:04:56.944Z,96224.03
2023-03-17T21:07:23.510Z,96227.84
2023-03-17T21:09:51.737Z,96229.75
2023-03-17T21:13:59.859Z,96225.09
2023-03-17T21:16:28.132Z,96220.78
2023-03-17T21:18:54.974Z,96223.84
2023-03-17T21:21:21.849Z,96225.66
2023-03-17T21:23:48.440Z,96223.34
2023-03-17T21:26:15.291Z,96215.22
2023-03-17T21:28:42.498Z,96216.28
2023-03-17T21:31:10.210Z,96218.06
2023-03-17T21:33:36.824Z,96215.81
2023-03-17T21:36:03.570Z,96211.72
2023-03-17T21:38:31.116Z,96222.44
2023-03-17T21:43:38.503Z,96209.03
2023-03-17T21:46:05.521Z,96211.09
2023-03-17T21:48:32.104Z,96204.47
2023-03-17T21:50:58.583Z,96205.88
2023-03-17T21:53:26.193Z,96203.25
2023-03-17T21:55:52.972Z,96203.25
2023-03-17T21:58:21.317Z,96207.88
2023-03-17T22:00:48.944Z,96201.41
2023-03-17T22:03:15.672Z,96198.16
2023-03-17T22:05:42.385Z,96196.81
2023-03-17T22:08:09.376Z,96192.44
2023-03-17T22:10:35.897Z,96191.56
2023-03-17T22:13:02.374Z,96191.81
2023-03-17T22:18:09.666Z,96191.63
2023-03-17T22:20:36.396Z,96188.50
2023-03-17T22:23:03.442Z,96187.75
2023-03-17T22:25:29.969Z,96184.44
2023-03-17T22:27:57.117Z,96184.44
2023-03-17T22:30:23.748Z,96180.13
2023-03-17T22:32:51.134Z,96181.19
2023-03-17T22:35:19.656Z,96173.84
2023-03-17T22:37:46.538Z,96173.84
2023-03-17T22:40:13.214Z,96161.19
2023-03-17T22:42:39.755Z,96157.94
2023-03-17T22:45:06.518Z,96165.22
2023-03-17T22:47:33.081Z,96163.84
2023-03-17T22:49:59.625Z,96157.03
2023-03-17T22:52:26.219Z,96156.19
2023-03-17T22:54:52.709Z,96156.72
2023-03-17T22:57:19.229Z,96166.28
2023-03-17T22:59:45.805Z,96161.03
2023-03-17T23:02:12.318Z,96161.84
2023-03-17T23:04:38.847Z,96156.53
2023-03-17T23:07:05.611Z,96165.63
2023-03-17T23:09:32.832Z,96157.19
2023-03-17T23:12:00.591Z,96156.53
2023-03-17T23:14:27.255Z,96157.38
2023-03-17T23:16:53.849Z,96160.00
2023-03-17T23:19:20.495Z,96159.28
2023-03-17T23:21:47.392Z,96158.63
2023-03-17T23:24:13.906Z,96153.41
2023-03-17T23:26:40.452Z,96147.56
2023-03-17T23:29:08.494Z,96154.78
2023-03-17T23:34:14.386Z,96157.94
2023-03-17T23:36:40.936Z,96165.59
2023-03-17T23:39:08.100Z,96155.84
2023-03-17T23:41:34.668Z,96161.19
2023-03-17T23:44:01.167Z,96155.31
2023-03-17T23:46:28.494Z,96157.81
2023-03-17T23:48:55.026Z,96160.66
2023-03-17T23:51:22.424Z,96153.97
2023-03-17T23:53:50.588Z,96151.56
2023-03-17T23:56:17.502Z,96155.94
2023-03-17T23:58:44.077Z,96151.56
